sensor_id;sensor_type;location;lat;lon;timestamp;temperature;humidity
913;DHT22;443;51.448;7.028;2023-03-23T00:00:56;14.80;75.70
913;DHT22;443;51.448;7.028;2023-03-23T00:03:23;14.80;75.50
913;DHT22;443;51.448;7.028;2023-03-23T00:05:51;14.80;76.30
913;DHT22;443;51.448;7.028;2023-03-23T00:08:19;14.80;75.60
913;DHT22;443;51.448;7.028;2023-03-23T00:10:50;14.80;75.30
913;DHT22;443;51.448;7.028;2023-03-23T00:13:18;14.80;75.00
913;DHT22;443;51.448;7.028;2023-03-23T00:15:45;14.90;75.10
913;DHT22;443;51.448;7.028;2023-03-23T00:18:14;14.80;75.10
913;DHT22;443;51.448;7.028;2023-03-23T00:20:49;14.90;75.20
913;DHT22;443;51.448;7.028;2023-03-23T00:23:17;14.80;75.00
913;DHT22;443;51.448;7.028;2023-03-23T00:25:50;14.80;74.80
913;DHT22;443;51.448;7.028;2023-03-23T00:28:20;14.90;75.20
913;DHT22;443;51.448;7.028;2023-03-23T00:30:54;14.80;75.00
913;DHT22;443;51.448;7.028;2023-03-23T00:33:22;14.90;75.30
913;DHT22;443;51.448;7.028;2023-03-23T00:35:49;14.80;74.60
913;DHT22;443;51.448;7.028;2023-03-23T00:38:18;14.90;75.00
913;DHT22;443;51.448;7.028;2023-03-23T00:40:45;14.90;75.00
913;DHT22;443;51.448;7.028;2023-03-23T00:43:14;14.90;74.90
913;DHT22;443;51.448;7.028;2023-03-23T00:45:42;14.90;74.70
913;DHT22;443;51.448;7.028;2023-03-23T00:48:10;14.80;74.70
913;DHT22;443;51.448;7.028;2023-03-23T00:50:38;14.80;74.70
913;DHT22;443;51.448;7.028;2023-03-23T00:53:06;14.80;74.60
913;DHT22;443;51.448;7.028;2023-03-23T00:55:32;14.80;74.70
913;DHT22;443;51.448;7.028;2023-03-23T00:58:06;14.80;74.80
913;DHT22;443;51.448;7.028;2023-03-23T01:00:34;14.80;74.80
913;DHT22;443;51.448;7.028;2023-03-23T01:03:00;14.90;75.00
913;DHT22;443;51.448;7.028;2023-03-23T01:05:27;14.90;74.80
913;DHT22;443;51.448;7.028;2023-03-23T01:07:57;14.90;74.70
913;DHT22;443;51.448;7.028;2023-03-23T01:10:26;14.90;74.80
913;DHT22;443;51.448;7.028;2023-03-23T01:12:53;14.90;74.80
913;DHT22;443;51.448;7.028;2023-03-23T01:15:21;14.90;74.70
913;DHT22;443;51.448;7.028;2023-03-23T01:17:49;14.90;74.70
913;DHT22;443;51.448;7.028;2023-03-23T01:20:16;14.90;74.80
913;DHT22;443;51.448;7.028;2023-03-23T01:22:43;14.90;74.80
913;DHT22;443;51.448;7.028;2023-03-23T01:25:11;14.90;74.60
913;DHT22;443;51.448;7.028;2023-03-23T01:27:39;14.90;74.60
913;DHT22;443;51.448;7.028;2023-03-23T01:30:08;15.00;74.70
913;DHT22;443;51.448;7.028;2023-03-23T01:32:37;15.00;74.50
913;DHT22;443;51.448;7.028;2023-03-23T01:35:05;14.90;74.50
913;DHT22;443;51.448;7.028;2023-03-23T01:37:32;15.00;74.40
913;DHT22;443;51.448;7.028;2023-03-23T01:39:59;14.90;74.50
913;DHT22;443;51.448;7.028;2023-03-23T01:42:33;14.90;74.20
913;DHT22;443;51.448;7.028;2023-03-23T01:45:27;15.00;74.40
913;DHT22;443;51.448;7.028;2023-03-23T01:48:07;15.00;74.40
913;DHT22;443;51.448;7.028;2023-03-23T01:50:42;14.90;74.30
913;DHT22;443;51.448;7.028;2023-03-23T01:53:11;14.90;74.30
913;DHT22;443;51.448;7.028;2023-03-23T01:55:40;15.00;74.30
913;DHT22;443;51.448;7.028;2023-03-23T01:58:08;15.00;74.20
913;DHT22;443;51.448;7.028;2023-03-23T02:00:36;15.00;74.40
913;DHT22;443;51.448;7.028;2023-03-23T02:03:06;14.90;74.30
913;DHT22;443;51.448;7.028;2023-03-23T02:05:39;14.90;74.30
913;DHT22;443;51.448;7.028;2023-03-23T02:08:07;14.90;74.50
913;DHT22;443;51.448;7.028;2023-03-23T02:10:35;14.90;74.50
913;DHT22;443;51.448;7.028;2023-03-23T02:13:03;14.90;75.30
913;DHT22;443;51.448;7.028;2023-03-23T02:15:36;14.80;74.60
913;DHT22;443;51.448;7.028;2023-03-23T02:18:09;14.90;74.50
913;DHT22;443;51.448;7.028;2023-03-23T02:20:53;14.90;74.60
913;DHT22;443;51.448;7.028;2023-03-23T02:23:45;14.90;74.70
913;DHT22;443;51.448;7.028;2023-03-23T02:26:33;14.80;74.50
913;DHT22;443;51.448;7.028;2023-03-23T02:29:25;14.90;74.80
913;DHT22;443;51.448;7.028;2023-03-23T02:32:15;14.80;74.70
913;DHT22;443;51.448;7.028;2023-03-23T02:34:49;14.80;75.10
913;DHT22;443;51.448;7.028;2023-03-23T02:37:21;14.80;75.00
913;DHT22;443;51.448;7.028;2023-03-23T02:39:52;14.80;75.00
913;DHT22;443;51.448;7.028;2023-03-23T02:42:23;14.80;74.80
913;DHT22;443;51.448;7.028;2023-03-23T02:44:53;14.80;74.90
913;DHT22;443;51.448;7.028;2023-03-23T02:47:23;14.80;75.10
913;DHT22;443;51.448;7.028;2023-03-23T02:49:54;14.90;75.30
913;DHT22;443;51.448;7.028;2023-03-23T02:52:28;14.80;75.10
913;DHT22;443;51.448;7.028;2023-03-23T02:54:56;14.80;75.00
913;DHT22;443;51.448;7.028;2023-03-23T02:57:25;14.80;75.00
913;DHT22;443;51.448;7.028;2023-03-23T02:59:53;14.80;74.80
913;DHT22;443;51.448;7.028;2023-03-23T03:02:23;14.80;74.90
913;DHT22;443;51.448;7.028;2023-03-23T03:04:58;14.80;75.30
913;DHT22;443;51.448;7.028;2023-03-23T03:07:59;14.80;75.30
913;DHT22;443;51.448;7.028;2023-03-23T03:10:32;14.80;75.30
913;DHT22;443;51.448;7.028;2023-03-23T03:13:07;14.80;75.10
913;DHT22;443;51.448;7.028;2023-03-23T03:15:43;14.80;75.00
913;DHT22;443;51.448;7.028;2023-03-23T03:18:16;14.80;75.20
913;DHT22;443;51.448;7.028;2023-03-23T03:20:49;14.70;75.10
913;DHT22;443;51.448;7.028;2023-03-23T03:23:20;14.80;75.10
913;DHT22;443;51.448;7.028;2023-03-23T03:25:49;14.80;75.30
913;DHT22;443;51.448;7.028;2023-03-23T03:28:17;14.80;74.80
913;DHT22;443;51.448;7.028;2023-03-23T03:30:48;14.80;74.80
913;DHT22;443;51.448;7.028;2023-03-23T03:33:17;14.80;75.00
913;DHT22;443;51.448;7.028;2023-03-23T03:35:47;14.70;74.90
913;DHT22;443;51.448;7.028;2023-03-23T03:38:15;14.80;75.00
913;DHT22;443;51.448;7.028;2023-03-23T03:40:42;14.70;74.90
913;DHT22;443;51.448;7.028;2023-03-23T03:43:08;14.70;75.00
913;DHT22;443;51.448;7.028;2023-03-23T03:45:35;14.70;75.60
913;DHT22;443;51.448;7.028;2023-03-23T03:48:02;14.70;75.00
913;DHT22;443;51.448;7.028;2023-03-23T03:50:29;14.70;75.00
913;DHT22;443;51.448;7.028;2023-03-23T03:52:57;14.70;74.90
913;DHT22;443;51.448;7.028;2023-03-23T03:55:24;14.70;74.80
913;DHT22;443;51.448;7.028;2023-03-23T03:57:53;14.80;74.80
913;DHT22;443;51.448;7.028;2023-03-23T04:00:20;14.70;74.80
913;DHT22;443;51.448;7.028;2023-03-23T04:02:49;14.70;74.90
913;DHT22;443;51.448;7.028;2023-03-23T04:05:20;14.70;74.70
913;DHT22;443;51.448;7.028;2023-03-23T04:07:47;14.70;74.80
913;DHT22;443;51.448;7.028;2023-03-23T04:10:19;14.70;74.60
913;DHT22;443;51.448;7.028;2023-03-23T04:12:47;14.70;74.80
913;DHT22;443;51.448;7.028;2023-03-23T04:15:14;14.70;74.80
913;DHT22;443;51.448;7.028;2023-03-23T04:17:41;14.80;74.80
913;DHT22;443;51.448;7.028;2023-03-23T04:20:09;14.80;74.80
913;DHT22;443;51.448;7.028;2023-03-23T04:22:43;14.80;74.70
913;DHT22;443;51.448;7.028;2023-03-23T04:25:12;14.70;74.60
913;DHT22;443;51.448;7.028;2023-03-23T04:27:41;14.80;74.70
913;DHT22;443;51.448;7.028;2023-03-23T04:30:13;14.80;74.70
913;DHT22;443;51.448;7.028;2023-03-23T04:32:40;14.80;74.60
913;DHT22;443;51.448;7.028;2023-03-23T04:35:09;14.80;74.50
913;DHT22;443;51.448;7.028;2023-03-23T04:37:37;14.80;74.50
913;DHT22;443;51.448;7.028;2023-03-23T04:40:05;14.80;74.40
913;DHT22;443;51.448;7.028;2023-03-23T04:42:37;14.80;74.40
913;DHT22;443;51.448;7.028;2023-03-23T04:45:06;14.80;74.50
913;DHT22;443;51.448;7.028;2023-03-23T04:47:35;14.70;74.40
913;DHT22;443;51.448;7.028;2023-03-23T04:50:07;14.70;74.40
913;DHT22;443;51.448;7.028;2023-03-23T04:52:34;14.70;75.20
913;DHT22;443;51.448;7.028;2023-03-23T04:55:04;14.70;74.50
913;DHT22;443;51.448;7.028;2023-03-23T04:57:32;14.70;74.60
913;DHT22;443;51.448;7.028;2023-03-23T04:59:58;14.70;74.50
913;DHT22;443;51.448;7.028;2023-03-23T05:02:27;14.70;74.50
913;DHT22;443;51.448;7.028;2023-03-23T05:04:55;14.70;74.40
913;DHT22;443;51.448;7.028;2023-03-23T05:07:22;14.70;74.40
913;DHT22;443;51.448;7.028;2023-03-23T05:09:49;14.80;74.50
913;DHT22;443;51.448;7.028;2023-03-23T05:12:16;14.80;74.40
913;DHT22;443;51.448;7.028;2023-03-23T05:14:43;14.70;74.40
913;DHT22;443;51.448;7.028;2023-03-23T05:17:10;14.70;74.30
913;DHT22;443;51.448;7.028;2023-03-23T05:19:39;14.70;74.40
913;DHT22;443;51.448;7.028;2023-03-23T05:22:08;14.70;74.30
913;DHT22;443;51.448;7.028;2023-03-23T05:24:38;14.70;74.30
913;DHT22;443;51.448;7.028;2023-03-23T05:27:04;14.70;74.30
913;DHT22;443;51.448;7.028;2023-03-23T05:29:33;14.70;74.40
913;DHT22;443;51.448;7.028;2023-03-23T05:32:01;14.70;74.40
913;DHT22;443;51.448;7.028;2023-03-23T05:34:29;14.70;74.30
913;DHT22;443;51.448;7.028;2023-03-23T05:36:59;14.80;74.30
913;DHT22;443;51.448;7.028;2023-03-23T05:39:26;14.80;74.40
913;DHT22;443;51.448;7.028;2023-03-23T05:41:53;14.80;74.50
913;DHT22;443;51.448;7.028;2023-03-23T05:44:20;14.80;74.40
913;DHT22;443;51.448;7.028;2023-03-23T05:46:47;14.80;74.30
913;DHT22;443;51.448;7.028;2023-03-23T05:49:14;14.80;74.40
913;DHT22;443;51.448;7.028;2023-03-23T05:51:42;14.80;74.20
913;DHT22;443;51.448;7.028;2023-03-23T05:54:10;14.80;74.20
913;DHT22;443;51.448;7.028;2023-03-23T05:56:37;14.80;74.00
913;DHT22;443;51.448;7.028;2023-03-23T05:59:04;14.80;74.20
913;DHT22;443;51.448;7.028;2023-03-23T06:01:31;14.80;74.00
913;DHT22;443;51.448;7.028;2023-03-23T06:03:58;14.90;74.10
913;DHT22;443;51.448;7.028;2023-03-23T06:06:25;14.90;74.20
913;DHT22;443;51.448;7.028;2023-03-23T06:08:52;14.80;74.20
913;DHT22;443;51.448;7.028;2023-03-23T06:11:21;14.90;74.20
913;DHT22;443;51.448;7.028;2023-03-23T06:13:47;14.90;73.90
913;DHT22;443;51.448;7.028;2023-03-23T06:16:14;15.00;74.10
913;DHT22;443;51.448;7.028;2023-03-23T06:18:41;14.90;74.10
913;DHT22;443;51.448;7.028;2023-03-23T06:21:08;14.90;74.10
913;DHT22;443;51.448;7.028;2023-03-23T06:23:35;14.90;73.90
913;DHT22;443;51.448;7.028;2023-03-23T06:26:04;15.00;74.10
913;DHT22;443;51.448;7.028;2023-03-23T06:28:33;15.00;73.90
913;DHT22;443;51.448;7.028;2023-03-23T06:31:01;15.00;74.00
913;DHT22;443;51.448;7.028;2023-03-23T06:33:30;15.00;73.70
913;DHT22;443;51.448;7.028;2023-03-23T06:35:57;15.00;73.80
913;DHT22;443;51.448;7.028;2023-03-23T06:38:24;15.10;73.80
913;DHT22;443;51.448;7.028;2023-03-23T06:40:51;15.00;73.80
913;DHT22;443;51.448;7.028;2023-03-23T06:43:19;15.00;73.90
913;DHT22;443;51.448;7.028;2023-03-23T06:45:47;15.00;73.90
913;DHT22;443;51.448;7.028;2023-03-23T06:48:14;15.00;74.10
913;DHT22;443;51.448;7.028;2023-03-23T06:50:43;15.00;73.60
913;DHT22;443;51.448;7.028;2023-03-23T06:53:10;15.00;73.70
913;DHT22;443;51.448;7.028;2023-03-23T06:55:38;15.00;73.80
913;DHT22;443;51.448;7.028;2023-03-23T06:58:06;15.00;73.80
913;DHT22;443;51.448;7.028;2023-03-23T07:00:33;15.00;73.90
913;DHT22;443;51.448;7.028;2023-03-23T07:03:02;15.00;73.50
913;DHT22;443;51.448;7.028;2023-03-23T07:05:29;15.00;73.50
913;DHT22;443;51.448;7.028;2023-03-23T07:07:56;15.00;73.80
913;DHT22;443;51.448;7.028;2023-03-23T07:10:23;15.00;73.50
913;DHT22;443;51.448;7.028;2023-03-23T07:12:50;15.10;73.70
913;DHT22;443;51.448;7.028;2023-03-23T07:15:17;15.10;73.40
913;DHT22;443;51.448;7.028;2023-03-23T07:17:44;15.10;73.70
913;DHT22;443;51.448;7.028;2023-03-23T07:20:13;15.00;73.80
913;DHT22;443;51.448;7.028;2023-03-23T07:22:41;15.00;73.70
913;DHT22;443;51.448;7.028;2023-03-23T07:25:08;15.00;73.30
913;DHT22;443;51.448;7.028;2023-03-23T07:27:35;15.10;73.60
913;DHT22;443;51.448;7.028;2023-03-23T07:30:03;15.00;73.20
913;DHT22;443;51.448;7.028;2023-03-23T07:32:31;15.10;73.40
913;DHT22;443;51.448;7.028;2023-03-23T07:34:58;15.10;73.60
913;DHT22;443;51.448;7.028;2023-03-23T07:37:26;15.10;73.30
913;DHT22;443;51.448;7.028;2023-03-23T07:39:54;15.00;73.40
913;DHT22;443;51.448;7.028;2023-03-23T07:42:21;15.10;73.80
913;DHT22;443;51.448;7.028;2023-03-23T07:44:47;15.00;73.80
913;DHT22;443;51.448;7.028;2023-03-23T07:47:14;15.00;73.80
913;DHT22;443;51.448;7.028;2023-03-23T07:49:43;15.10;73.70
913;DHT22;443;51.448;7.028;2023-03-23T07:52:09;15.10;73.80
913;DHT22;443;51.448;7.028;2023-03-23T07:54:38;15.00;73.60
913;DHT22;443;51.448;7.028;2023-03-23T07:57:04;15.10;73.40
913;DHT22;443;51.448;7.028;2023-03-23T07:59:31;15.10;73.10
913;DHT22;443;51.448;7.028;2023-03-23T08:01:58;15.10;73.20
913;DHT22;443;51.448;7.028;2023-03-23T08:04:25;15.20;73.40
913;DHT22;443;51.448;7.028;2023-03-23T08:06:52;15.10;72.70
913;DHT22;443;51.448;7.028;2023-03-23T08:09:19;15.10;72.80
913;DHT22;443;51.448;7.028;2023-03-23T08:11:48;15.10;73.10
913;DHT22;443;51.448;7.028;2023-03-23T08:14:15;15.10;72.80
913;DHT22;443;51.448;7.028;2023-03-23T08:16:42;15.10;73.00
913;DHT22;443;51.448;7.028;2023-03-23T08:19:09;15.20;72.80
913;DHT22;443;51.448;7.028;2023-03-23T08:21:36;15.20;72.70
913;DHT22;443;51.448;7.028;2023-03-23T08:24:03;15.30;72.90
913;DHT22;443;51.448;7.028;2023-03-23T08:26:30;15.20;72.40
913;DHT22;443;51.448;7.028;2023-03-23T08:28:58;15.20;72.80
913;DHT22;443;51.448;7.028;2023-03-23T08:31:25;15.20;72.80
913;DHT22;443;51.448;7.028;2023-03-23T08:33:52;15.30;72.30
913;DHT22;443;51.448;7.028;2023-03-23T08:36:22;15.20;72.50
913;DHT22;443;51.448;7.028;2023-03-23T08:38:48;15.30;72.90
913;DHT22;443;51.448;7.028;2023-03-23T08:41:17;15.20;72.20
913;DHT22;443;51.448;7.028;2023-03-23T08:43:43;15.20;72.60
913;DHT22;443;51.448;7.028;2023-03-23T08:46:12;15.20;72.90
913;DHT22;443;51.448;7.028;2023-03-23T08:48:39;15.20;72.10
913;DHT22;443;51.448;7.028;2023-03-23T08:51:06;15.30;72.30
913;DHT22;443;51.448;7.028;2023-03-23T08:53:34;15.30;72.80
913;DHT22;443;51.448;7.028;2023-03-23T08:56:04;15.30;72.10
913;DHT22;443;51.448;7.028;2023-03-23T08:58:30;15.30;72.60
913;DHT22;443;51.448;7.028;2023-03-23T09:00:57;15.30;72.00
913;DHT22;443;51.448;7.028;2023-03-23T09:03:26;15.40;71.80
913;DHT22;443;51.448;7.028;2023-03-23T09:05:57;15.30;71.70
913;DHT22;443;51.448;7.028;2023-03-23T09:08:25;15.30;72.60
913;DHT22;443;51.448;7.028;2023-03-23T09:10:51;15.30;71.50
913;DHT22;443;51.448;7.028;2023-03-23T09:13:18;15.40;72.30
913;DHT22;443;51.448;7.028;2023-03-23T09:15:45;15.30;72.20
913;DHT22;443;51.448;7.028;2023-03-23T09:18:13;15.30;72.70
913;DHT22;443;51.448;7.028;2023-03-23T09:20:41;15.30;72.00
913;DHT22;443;51.448;7.028;2023-03-23T09:23:09;15.30;72.50
913;DHT22;443;51.448;7.028;2023-03-23T09:25:36;15.30;72.80
913;DHT22;443;51.448;7.028;2023-03-23T09:28:04;15.30;72.40
913;DHT22;443;51.448;7.028;2023-03-23T09:30:33;15.20;72.70
913;DHT22;443;51.448;7.028;2023-03-23T09:33:02;15.20;72.70
913;DHT22;443;51.448;7.028;2023-03-23T09:35:30;15.20;72.20
913;DHT22;443;51.448;7.028;2023-03-23T09:38:01;15.30;72.80
913;DHT22;443;51.448;7.028;2023-03-23T09:40:32;15.30;72.70
913;DHT22;443;51.448;7.028;2023-03-23T09:43:20;15.30;72.60
913;DHT22;443;51.448;7.028;2023-03-23T09:45:55;15.30;72.40
913;DHT22;443;51.448;7.028;2023-03-23T09:48:31;15.30;71.60
913;DHT22;443;51.448;7.028;2023-03-23T09:51:03;15.30;72.00
913;DHT22;443;51.448;7.028;2023-03-23T09:53:37;15.30;72.70
913;DHT22;443;51.448;7.028;2023-03-23T09:56:10;15.30;72.50
913;DHT22;443;51.448;7.028;2023-03-23T09:58:43;15.20;72.50
913;DHT22;443;51.448;7.028;2023-03-23T10:01:16;15.30;72.60
913;DHT22;443;51.448;7.028;2023-03-23T10:03:45;15.20;73.30
913;DHT22;443;51.448;7.028;2023-03-23T10:06:15;15.20;73.60
913;DHT22;443;51.448;7.028;2023-03-23T10:08:47;15.10;73.80
913;DHT22;443;51.448;7.028;2023-03-23T10:11:22;15.00;74.00
913;DHT22;443;51.448;7.028;2023-03-23T10:16:46;15.00;74.50
913;DHT22;443;51.448;7.028;2023-03-23T10:19:20;15.00;74.60
913;DHT22;443;51.448;7.028;2023-03-23T10:21:50;15.00;74.70
913;DHT22;443;51.448;7.028;2023-03-23T10:24:21;14.90;74.70
913;DHT22;443;51.448;7.028;2023-03-23T10:26:58;14.90;74.80
913;DHT22;443;51.448;7.028;2023-03-23T10:29:31;14.90;74.80
913;DHT22;443;51.448;7.028;2023-03-23T10:32:03;14.90;75.00
913;DHT22;443;51.448;7.028;2023-03-23T10:34:34;14.90;75.10
913;DHT22;443;51.448;7.028;2023-03-23T10:37:05;14.80;75.10
913;DHT22;443;51.448;7.028;2023-03-23T10:39:44;14.80;75.40
913;DHT22;443;51.448;7.028;2023-03-23T10:42:22;14.80;75.30
913;DHT22;443;51.448;7.028;2023-03-23T10:44:49;14.80;75.50
913;DHT22;443;51.448;7.028;2023-03-23T10:47:16;14.80;75.80
913;DHT22;443;51.448;7.028;2023-03-23T10:49:47;14.80;75.90
913;DHT22;443;51.448;7.028;2023-03-23T10:52:28;14.80;75.60
913;DHT22;443;51.448;7.028;2023-03-23T10:55:00;14.80;75.50
913;DHT22;443;51.448;7.028;2023-03-23T10:57:30;14.80;75.40
913;DHT22;443;51.448;7.028;2023-03-23T11:00:00;14.90;75.30
913;DHT22;443;51.448;7.028;2023-03-23T11:02:32;14.80;75.10
913;DHT22;443;51.448;7.028;2023-03-23T11:05:01;14.80;75.20
913;DHT22;443;51.448;7.028;2023-03-23T11:07:31;14.80;75.10
913;DHT22;443;51.448;7.028;2023-03-23T11:10:11;14.70;75.10
913;DHT22;443;51.448;7.028;2023-03-23T11:12:44;14.70;75.30
913;DHT22;443;51.448;7.028;2023-03-23T11:15:24;14.70;75.30
913;DHT22;443;51.448;7.028;2023-03-23T11:17:59;14.70;75.40
913;DHT22;443;51.448;7.028;2023-03-23T11:20:28;14.70;75.60
913;DHT22;443;51.448;7.028;2023-03-23T11:22:56;14.70;75.50
913;DHT22;443;51.448;7.028;2023-03-23T11:25:24;14.70;75.80
913;DHT22;443;51.448;7.028;2023-03-23T11:27:52;14.70;76.00
913;DHT22;443;51.448;7.028;2023-03-23T11:30:23;14.70;76.00
913;DHT22;443;51.448;7.028;2023-03-23T11:32:51;14.70;76.00
913;DHT22;443;51.448;7.028;2023-03-23T11:35:21;14.70;75.80
913;DHT22;443;51.448;7.028;2023-03-23T11:37:51;14.70;76.10
913;DHT22;443;51.448;7.028;2023-03-23T11:40:21;14.70;75.90
913;DHT22;443;51.448;7.028;2023-03-23T11:42:57;14.70;75.70
913;DHT22;443;51.448;7.028;2023-03-23T11:45:31;14.70;75.50
913;DHT22;443;51.448;7.028;2023-03-23T11:48:10;14.70;76.10
913;DHT22;443;51.448;7.028;2023-03-23T11:50:47;14.70;76.00
913;DHT22;443;51.448;7.028;2023-03-23T11:53:23;14.70;75.90
913;DHT22;443;51.448;7.028;2023-03-23T11:55:57;14.70;75.90
913;DHT22;443;51.448;7.028;2023-03-23T11:58:27;14.70;76.10
913;DHT22;443;51.448;7.028;2023-03-23T12:01:03;14.70;76.00
913;DHT22;443;51.448;7.028;2023-03-23T12:03:44;14.70;76.00
913;DHT22;443;51.448;7.028;2023-03-23T12:06:20;14.70;76.20
913;DHT22;443;51.448;7.028;2023-03-23T12:08:59;14.70;76.10
913;DHT22;443;51.448;7.028;2023-03-23T12:11:37;14.70;76.10
913;DHT22;443;51.448;7.028;2023-03-23T12:14:19;14.70;75.90
913;DHT22;443;51.448;7.028;2023-03-23T12:16:57;14.70;76.40
913;DHT22;443;51.448;7.028;2023-03-23T12:19:31;14.80;76.40
913;DHT22;443;51.448;7.028;2023-03-23T12:22:05;14.80;76.80
913;DHT22;443;51.448;7.028;2023-03-23T12:24:52;14.80;76.50
913;DHT22;443;51.448;7.028;2023-03-23T12:27:28;14.80;76.80
913;DHT22;443;51.448;7.028;2023-03-23T12:30:04;14.80;76.10
913;DHT22;443;51.448;7.028;2023-03-23T12:32:49;14.80;76.40
913;DHT22;443;51.448;7.028;2023-03-23T12:35:27;14.80;76.10
913;DHT22;443;51.448;7.028;2023-03-23T12:38:05;14.80;76.10
913;DHT22;443;51.448;7.028;2023-03-23T12:40:43;14.80;77.00
913;DHT22;443;51.448;7.028;2023-03-23T12:43:20;14.90;76.80
913;DHT22;443;51.448;7.028;2023-03-23T12:46:02;14.90;76.90
913;DHT22;443;51.448;7.028;2023-03-23T12:48:33;14.90;76.90
913;DHT22;443;51.448;7.028;2023-03-23T12:51:09;14.90;76.20
913;DHT22;443;51.448;7.028;2023-03-23T12:53:43;14.90;76.30
913;DHT22;443;51.448;7.028;2023-03-23T12:56:16;15.00;76.00
913;DHT22;443;51.448;7.028;2023-03-23T12:58:46;15.10;76.00
913;DHT22;443;51.448;7.028;2023-03-23T13:01:19;15.00;76.30
913;DHT22;443;51.448;7.028;2023-03-23T13:03:53;15.00;76.70
913;DHT22;443;51.448;7.028;2023-03-23T13:06:25;15.00;75.80
913;DHT22;443;51.448;7.028;2023-03-23T13:08:56;15.10;76.00
913;DHT22;443;51.448;7.028;2023-03-23T13:11:29;15.00;76.60
913;DHT22;443;51.448;7.028;2023-03-23T13:14:06;15.10;76.90
913;DHT22;443;51.448;7.028;2023-03-23T13:16:41;15.10;76.00
913;DHT22;443;51.448;7.028;2023-03-23T13:19:15;15.10;76.40
913;DHT22;443;51.448;7.028;2023-03-23T13:21:48;15.10;76.00
913;DHT22;443;51.448;7.028;2023-03-23T13:24:20;15.10;76.00
913;DHT22;443;51.448;7.028;2023-03-23T13:26:50;15.10;75.70
913;DHT22;443;51.448;7.028;2023-03-23T13:29:18;15.10;76.00
913;DHT22;443;51.448;7.028;2023-03-23T13:31:47;15.20;76.30
913;DHT22;443;51.448;7.028;2023-03-23T13:34:17;15.20;76.10
913;DHT22;443;51.448;7.028;2023-03-23T13:36:53;15.20;75.40
913;DHT22;443;51.448;7.028;2023-03-23T13:39:23;15.20;75.30
913;DHT22;443;51.448;7.028;2023-03-23T13:42:01;15.20;75.20
913;DHT22;443;51.448;7.028;2023-03-23T13:44:41;15.20;75.20
913;DHT22;443;51.448;7.028;2023-03-23T13:47:25;15.20;76.20
913;DHT22;443;51.448;7.028;2023-03-23T13:49:54;15.20;76.60
913;DHT22;443;51.448;7.028;2023-03-23T13:52:24;15.20;76.10
913;DHT22;443;51.448;7.028;2023-03-23T13:54:52;15.30;75.40
913;DHT22;443;51.448;7.028;2023-03-23T13:57:37;15.30;76.40
913;DHT22;443;51.448;7.028;2023-03-23T14:00:32;15.30;75.90
913;DHT22;443;51.448;7.028;2023-03-23T14:03:03;15.30;76.20
913;DHT22;443;51.448;7.028;2023-03-23T14:05:34;15.20;75.50
913;DHT22;443;51.448;7.028;2023-03-23T14:08:10;15.30;76.30
913;DHT22;443;51.448;7.028;2023-03-23T14:10:39;15.20;76.40
913;DHT22;443;51.448;7.028;2023-03-23T14:13:15;15.30;76.40
913;DHT22;443;51.448;7.028;2023-03-23T14:15:44;15.30;76.10
913;DHT22;443;51.448;7.028;2023-03-23T14:18:16;15.30;76.90
913;DHT22;443;51.448;7.028;2023-03-23T14:20:45;15.30;75.80
913;DHT22;443;51.448;7.028;2023-03-23T14:23:16;15.40;76.30
913;DHT22;443;51.448;7.028;2023-03-23T14:25:43;15.50;76.60
913;DHT22;443;51.448;7.028;2023-03-23T14:28:18;15.50;75.60
913;DHT22;443;51.448;7.028;2023-03-23T14:30:47;15.60;75.80
913;DHT22;443;51.448;7.028;2023-03-23T14:33:20;15.70;76.90
913;DHT22;443;51.448;7.028;2023-03-23T14:35:47;15.80;75.90
913;DHT22;443;51.448;7.028;2023-03-23T14:38:16;15.90;73.50
913;DHT22;443;51.448;7.028;2023-03-23T14:40:45;16.00;73.50
913;DHT22;443;51.448;7.028;2023-03-23T14:43:15;16.20;72.90
913;DHT22;443;51.448;7.028;2023-03-23T14:45:42;16.20;72.30
913;DHT22;443;51.448;7.028;2023-03-23T14:48:13;16.30;71.80
913;DHT22;443;51.448;7.028;2023-03-23T14:50:49;16.20;72.00
913;DHT22;443;51.448;7.028;2023-03-23T14:53:19;16.30;72.10
913;DHT22;443;51.448;7.028;2023-03-23T14:55:48;16.30;72.20
913;DHT22;443;51.448;7.028;2023-03-23T14:58:17;16.30;71.70
913;DHT22;443;51.448;7.028;2023-03-23T15:00:50;16.20;71.70
913;DHT22;443;51.448;7.028;2023-03-23T15:03:18;16.20;72.30
913;DHT22;443;51.448;7.028;2023-03-23T15:05:49;16.20;72.10
913;DHT22;443;51.448;7.028;2023-03-23T15:08:20;16.20;72.50
913;DHT22;443;51.448;7.028;2023-03-23T15:10:53;16.10;71.90
913;DHT22;443;51.448;7.028;2023-03-23T15:13:20;16.10;72.40
913;DHT22;443;51.448;7.028;2023-03-23T15:15:47;16.20;72.40
913;DHT22;443;51.448;7.028;2023-03-23T15:18:29;16.10;71.80
913;DHT22;443;51.448;7.028;2023-03-23T15:20:57;16.20;72.60
913;DHT22;443;51.448;7.028;2023-03-23T15:23:28;16.30;71.30
913;DHT22;443;51.448;7.028;2023-03-23T15:25:56;16.50;70.40
913;DHT22;443;51.448;7.028;2023-03-23T15:28:29;16.80;69.70
913;DHT22;443;51.448;7.028;2023-03-23T15:31:00;16.90;68.90
913;DHT22;443;51.448;7.028;2023-03-23T15:33:34;17.10;68.60
913;DHT22;443;51.448;7.028;2023-03-23T15:36:08;17.10;68.00
913;DHT22;443;51.448;7.028;2023-03-23T15:38:36;17.10;68.00
913;DHT22;443;51.448;7.028;2023-03-23T15:41:05;17.20;67.70
913;DHT22;443;51.448;7.028;2023-03-23T15:43:34;17.40;67.40
913;DHT22;443;51.448;7.028;2023-03-23T15:46:03;17.40;67.20
913;DHT22;443;51.448;7.028;2023-03-23T15:48:32;17.50;66.90
913;DHT22;443;51.448;7.028;2023-03-23T15:51:02;17.60;66.70
913;DHT22;443;51.448;7.028;2023-03-23T15:53:31;17.70;67.00
913;DHT22;443;51.448;7.028;2023-03-23T15:56:02;17.80;66.00
913;DHT22;443;51.448;7.028;2023-03-23T15:58:30;17.80;65.80
913;DHT22;443;51.448;7.028;2023-03-23T16:00:59;18.00;65.70
913;DHT22;443;51.448;7.028;2023-03-23T16:03:33;17.90;65.50
913;DHT22;443;51.448;7.028;2023-03-23T16:06:05;18.00;65.20
913;DHT22;443;51.448;7.028;2023-03-23T16:08:31;18.00;65.20
913;DHT22;443;51.448;7.028;2023-03-23T16:10:58;18.00;65.30
913;DHT22;443;51.448;7.028;2023-03-23T16:13:25;18.00;65.30
913;DHT22;443;51.448;7.028;2023-03-23T16:15:52;17.90;65.30
913;DHT22;443;51.448;7.028;2023-03-23T16:18:20;17.80;65.80
913;DHT22;443;51.448;7.028;2023-03-23T16:20:48;17.70;66.00
913;DHT22;443;51.448;7.028;2023-03-23T16:23:16;17.60;66.20
913;DHT22;443;51.448;7.028;2023-03-23T16:25:43;17.60;66.60
913;DHT22;443;51.448;7.028;2023-03-23T16:28:11;17.50;66.60
913;DHT22;443;51.448;7.028;2023-03-23T16:30:39;17.50;66.90
913;DHT22;443;51.448;7.028;2023-03-23T16:33:06;17.40;67.00
913;DHT22;443;51.448;7.028;2023-03-23T16:35:33;17.40;67.20
913;DHT22;443;51.448;7.028;2023-03-23T16:38:00;17.30;67.30
913;DHT22;443;51.448;7.028;2023-03-23T16:40:28;17.20;67.70
913;DHT22;443;51.448;7.028;2023-03-23T16:42:55;17.10;68.00
913;DHT22;443;51.448;7.028;2023-03-23T16:45:22;17.00;68.20
913;DHT22;443;51.448;7.028;2023-03-23T16:47:51;17.00;68.20
913;DHT22;443;51.448;7.028;2023-03-23T16:50:20;16.90;68.50
913;DHT22;443;51.448;7.028;2023-03-23T16:52:47;16.90;68.90
913;DHT22;443;51.448;7.028;2023-03-23T16:55:15;16.80;69.10
913;DHT22;443;51.448;7.028;2023-03-23T16:57:43;16.70;69.20